Bigfork Municipal Airport


Codes: KFOZ/
Name: Bigfork Municipal Airport
City: Bigfork
Country: United States
Elevation: 1348 ft.

Photos at Bigfork Municipal Airport


   Photos courtesy of SpottingLog. You can add your own sightings and photos by signing up for a free trial today.



No photos found.

Weather at Bigfork Municipal Airport


Time (UTC)DescriptionTempratureWindCloud coverageVisibilityPressureHumidity
23-May-2024 21:00Scattered Clouds17°C7 mph, NE41%10000m1012hPa43%
24-May-2024 00:00Scattered Clouds15°C9 mph, NE41%10000m1011hPa52%
24-May-2024 03:00Light Rain9°C9 mph, NE100%6512m1011hPa91%
24-May-2024 06:00Light Rain8°C13 mph, E100%10000m1009hPa90%
24-May-2024 09:00Overcast Clouds8°C11 mph, E100%10000m1008hPa87%
24-May-2024 12:00Overcast Clouds8°C13 mph, SE98%10000m1006hPa73%
24-May-2024 15:00Light Rain11°C18 mph, SE100%10000m1002hPa73%
24-May-2024 18:00Moderate Rain9°C18 mph, SE100%10000m998hPa97%
24-May-2024 21:00Moderate Rain11°C16 mph, SE100%10000m998hPa97%
25-May-2024 00:00Light Rain11°C9 mph, SE100%10000m998hPa98%
25-May-2024 03:00Light Rain5°C11 mph, W100%10000m1003hPa95%
25-May-2024 06:00Overcast Clouds3°C11 mph, W100%10000m1005hPa87%
25-May-2024 09:00Broken Clouds3°C7 mph, SW84%10000m1007hPa88%
25-May-2024 12:00Scattered Clouds4°C9 mph, SW48%10000m1008hPa81%
25-May-2024 15:00Clear Sky12°C11 mph, SW8%10000m1007hPa49%
25-May-2024 18:00Scattered Clouds15°C9 mph, SW44%10000m1007hPa51%
25-May-2024 21:00Overcast Clouds15°C9 mph, SW97%10000m1006hPa66%
26-May-2024 00:00Light Rain14°C7 mph, S99%10000m1005hPa85%
26-May-2024 03:00Light Rain11°C4 mph, SW100%10000m1007hPa98%
26-May-2024 06:00Light Rain11°C4 mph, S100%10000m1007hPa98%
26-May-2024 09:00Overcast Clouds11°C2 mph, E100%10000m1006hPa98%
26-May-2024 12:00Light Rain11°C4 mph, E100%10000m1006hPa99%
26-May-2024 15:00Light Rain15°C7 mph, E100%10000m1006hPa83%
26-May-2024 18:00Light Rain17°C7 mph, SE100%10000m1005hPa76%
26-May-2024 21:00Light Rain18°C9 mph, E100%10000m1004hPa57%
27-May-2024 00:00Overcast Clouds14°C7 mph, SE99%10000m1007hPa66%
27-May-2024 03:00Broken Clouds9°C2 mph, NE78%10000m1008hPa92%
27-May-2024 06:00Broken Clouds9°C4 mph, N78%10000m1009hPa85%
27-May-2024 09:00Overcast Clouds10°C4 mph, N100%10000m1009hPa80%
27-May-2024 12:00Overcast Clouds10°C4 mph, NW100%10000m1010hPa84%
27-May-2024 15:00Overcast Clouds15°C11 mph, NW100%10000m1010hPa58%
27-May-2024 18:00Overcast Clouds17°C13 mph, NW100%10000m1010hPa41%
27-May-2024 21:00Broken Clouds18°C11 mph, NW82%10000m1009hPa39%
28-May-2024 00:00Broken Clouds16°C7 mph, NW60%10000m1009hPa53%
28-May-2024 03:00Scattered Clouds11°C2 mph, W35%10000m1009hPa72%
28-May-2024 06:00Moderate Rain10°C2 mph, N67%10000m1009hPa98%
28-May-2024 09:00Moderate Rain8°C9 mph, NW100%10000m1009hPa97%
28-May-2024 12:00Light Rain6°C11 mph, NW99%10000m1011hPa94%
28-May-2024 15:00Overcast Clouds6°C11 mph, NW100%10000m1012hPa83%
28-May-2024 18:00Light Rain6°C9 mph, NW100%10000m1014hPa96%